sensor_id;sensor_type;location;lat;lon;timestamp;pressure;altitude;pressure_sealevel;temperature;humidity
39265;BME280;42646;51.910;7.724;2023-05-08T00:00:11;101479.13;;;12.83;83.74
39265;BME280;42646;51.910;7.724;2023-05-08T00:02:40;101482.34;;;12.77;84.00
39265;BME280;42646;51.910;7.724;2023-05-08T00:05:08;101483.19;;;12.77;83.75
39265;BME280;42646;51.910;7.724;2023-05-08T00:07:36;101481.63;;;12.75;84.01
39265;BME280;42646;51.910;7.724;2023-05-08T00:10:08;101476.41;;;12.73;83.96
39265;BME280;42646;51.910;7.724;2023-05-08T00:12:37;101481.88;;;12.72;84.07
39265;BME280;42646;51.910;7.724;2023-05-08T00:15:05;101475.84;;;12.70;84.29
39265;BME280;42646;51.910;7.724;2023-05-08T00:17:33;101476.94;;;12.67;84.33
39265;BME280;42646;51.910;7.724;2023-05-08T00:20:03;101481.56;;;12.65;84.30
39265;BME280;42646;51.910;7.724;2023-05-08T00:22:32;101479.88;;;12.64;84.33
39265;BME280;42646;51.910;7.724;2023-05-08T00:25:00;101476.47;;;12.62;84.58
39265;BME280;42646;51.910;7.724;2023-05-08T00:27:29;101475.78;;;12.60;84.81
39265;BME280;42646;51.910;7.724;2023-05-08T00:29:59;101486.44;;;12.60;84.45
39265;BME280;42646;51.910;7.724;2023-05-08T00:32:27;101486.59;;;12.59;84.58
39265;BME280;42646;51.910;7.724;2023-05-08T00:51:52;101467.91;;;12.38;85.92
39265;BME280;42646;51.910;7.724;2023-05-08T00:54:21;101466.22;;;12.37;85.95
39265;BME280;42646;51.910;7.724;2023-05-08T00:56:49;101474.22;;;12.37;86.01
39265;BME280;42646;51.910;7.724;2023-05-08T00:59:20;101473.38;;;12.36;85.88
39265;BME280;42646;51.910;7.724;2023-05-08T01:01:49;101470.00;;;12.34;86.37
39265;BME280;42646;51.910;7.724;2023-05-08T01:04:19;101472.78;;;12.33;86.38
39265;BME280;42646;51.910;7.724;2023-05-08T01:06:48;101472.78;;;12.33;86.08
39265;BME280;42646;51.910;7.724;2023-05-08T01:09:17;101472.91;;;12.31;86.30
39265;BME280;42646;51.910;7.724;2023-05-08T01:11:49;101472.22;;;12.29;86.36
39265;BME280;42646;51.910;7.724;2023-05-08T01:14:20;101469.91;;;12.24;86.47
39265;BME280;42646;51.910;7.724;2023-05-08T01:16:56;101476.38;;;12.22;86.85
39265;BME280;42646;51.910;7.724;2023-05-08T01:19:41;101471.97;;;12.21;87.00
39265;BME280;42646;51.910;7.724;2023-05-08T01:22:34;101474.09;;;12.17;87.01
39265;BME280;42646;51.910;7.724;2023-05-08T01:25:30;101470.81;;;12.14;87.28
39265;BME280;42646;51.910;7.724;2023-05-08T01:28:47;101477.13;;;12.13;87.46
39265;BME280;42646;51.910;7.724;2023-05-08T01:31:24;101473.75;;;12.11;87.33
39265;BME280;42646;51.910;7.724;2023-05-08T01:34:04;101470.34;;;12.09;87.49
39265;BME280;42646;51.910;7.724;2023-05-08T01:36:39;101474.25;;;12.05;87.88
39265;BME280;42646;51.910;7.724;2023-05-08T01:39:33;101469.31;;;12.00;88.13
39265;BME280;42646;51.910;7.724;2023-05-08T01:42:04;101473.06;;;11.97;88.44
39265;BME280;42646;51.910;7.724;2023-05-08T01:44:40;101468.59;;;11.98;88.57
39265;BME280;42646;51.910;7.724;2023-05-08T01:47:11;101465.69;;;11.90;88.95
39265;BME280;42646;51.910;7.724;2023-05-08T01:49:44;101463.16;;;11.88;88.86
39265;BME280;42646;51.910;7.724;2023-05-08T01:52:14;101463.41;;;11.85;89.09
39265;BME280;42646;51.910;7.724;2023-05-08T01:54:48;101470.69;;;11.83;89.15
39265;BME280;42646;51.910;7.724;2023-05-08T01:57:17;101470.06;;;11.80;89.56
39265;BME280;42646;51.910;7.724;2023-05-08T01:59:46;101472.84;;;11.78;89.41
39265;BME280;42646;51.910;7.724;2023-05-08T02:02:17;101466.81;;;11.76;89.58
39265;BME280;42646;51.910;7.724;2023-05-08T02:04:47;101474.09;;;11.74;89.82
39265;BME280;42646;51.910;7.724;2023-05-08T02:07:15;101477.97;;;11.70;90.18
39265;BME280;42646;51.910;7.724;2023-05-08T02:09:46;101480.78;;;11.68;90.44
39265;BME280;42646;51.910;7.724;2023-05-08T02:12:15;101483.56;;;11.67;90.20
39265;BME280;42646;51.910;7.724;2023-05-08T02:14:45;101487.19;;;11.66;90.18
39265;BME280;42646;51.910;7.724;2023-05-08T02:17:16;101482.84;;;11.65;90.28
39265;BME280;42646;51.910;7.724;2023-05-08T02:19:47;101479.47;;;11.63;90.40
39265;BME280;42646;51.910;7.724;2023-05-08T02:22:17;101484.06;;;11.61;90.62
39265;BME280;42646;51.910;7.724;2023-05-08T02:24:53;101486.00;;;11.59;90.69
39265;BME280;42646;51.910;7.724;2023-05-08T02:27:23;101480.81;;;11.57;90.80
39265;BME280;42646;51.910;7.724;2023-05-08T02:29:53;101481.16;;;11.53;91.15
39265;BME280;42646;51.910;7.724;2023-05-08T02:32:24;101482.25;;;11.50;91.12
39265;BME280;42646;51.910;7.724;2023-05-08T02:34:55;101480.56;;;11.49;91.34
39265;BME280;42646;51.910;7.724;2023-05-08T02:37:30;101482.38;;;11.48;91.06
39265;BME280;42646;51.910;7.724;2023-05-08T02:40:03;101476.47;;;11.45;91.32
39265;BME280;42646;51.910;7.724;2023-05-08T02:42:33;101484.56;;;11.43;91.25
39265;BME280;42646;51.910;7.724;2023-05-08T02:45:08;101477.69;;;11.41;91.16
39265;BME280;42646;51.910;7.724;2023-05-08T02:47:42;101477.81;;;11.39;91.39
39265;BME280;42646;51.910;7.724;2023-05-08T02:50:19;101474.41;;;11.37;91.48
39265;BME280;42646;51.910;7.724;2023-05-08T02:52:52;101482.41;;;11.37;91.65
39265;BME280;42646;51.910;7.724;2023-05-08T02:55:32;101480.84;;;11.35;92.06
39265;BME280;42646;51.910;7.724;2023-05-08T02:58:08;101480.13;;;11.33;92.24
39265;BME280;42646;51.910;7.724;2023-05-08T03:00:43;101481.19;;;11.30;92.36
39265;BME280;42646;51.910;7.724;2023-05-08T03:03:16;101477.94;;;11.27;92.58
39265;BME280;42646;51.910;7.724;2023-05-08T03:05:50;101487.72;;;11.26;92.50
39265;BME280;42646;51.910;7.724;2023-05-08T03:08:23;101482.66;;;11.23;92.72
39265;BME280;42646;51.910;7.724;2023-05-08T03:10:56;101488.97;;;11.22;92.35
39265;BME280;42646;51.910;7.724;2023-05-08T03:16:44;101481.34;;;11.17;93.04
39265;BME280;42646;51.910;7.724;2023-05-08T03:19:18;101476.13;;;11.16;93.21
39265;BME280;42646;51.910;7.724;2023-05-08T03:21:53;101482.44;;;11.15;93.46
39265;BME280;42646;51.910;7.724;2023-05-08T03:24:22;101480.84;;;11.12;93.15
39265;BME280;42646;51.910;7.724;2023-05-08T03:26:52;101473.97;;;11.10;93.28
39265;BME280;42646;51.910;7.724;2023-05-08T03:29:23;101473.22;;;11.08;93.14
39265;BME280;42646;51.910;7.724;2023-05-08T03:31:53;101478.66;;;11.06;93.33
39265;BME280;42646;51.910;7.724;2023-05-08T03:34:22;101466.34;;;11.05;93.37
39265;BME280;42646;51.910;7.724;2023-05-08T03:36:52;101472.63;;;11.04;93.61
39265;BME280;42646;51.910;7.724;2023-05-08T03:39:21;101473.69;;;11.02;94.21
39265;BME280;42646;51.910;7.724;2023-05-08T03:41:54;101464.03;;;11.01;94.45
39265;BME280;42646;51.910;7.724;2023-05-08T03:44:23;101467.78;;;10.98;94.24
39265;BME280;42646;51.910;7.724;2023-05-08T03:46:54;101457.22;;;10.96;94.85
39265;BME280;42646;51.910;7.724;2023-05-08T03:49:25;101463.53;;;10.95;95.09
39265;BME280;42646;51.910;7.724;2023-05-08T03:51:59;101459.31;;;10.93;95.04
39265;BME280;42646;51.910;7.724;2023-05-08T03:54:27;101462.09;;;10.91;95.30
39265;BME280;42646;51.910;7.724;2023-05-08T03:56:56;101464.75;;;10.91;95.18
39265;BME280;42646;51.910;7.724;2023-05-08T03:59:53;101465.72;;;10.90;95.24
39265;BME280;42646;51.910;7.724;2023-05-08T04:02:30;101462.34;;;10.88;95.24
39265;BME280;42646;51.910;7.724;2023-05-08T04:05:09;101463.31;;;10.87;95.82
39265;BME280;42646;51.910;7.724;2023-05-08T04:07:46;101468.63;;;10.87;95.83
39265;BME280;42646;51.910;7.724;2023-05-08T04:10:21;101468.75;;;10.86;95.89
39265;BME280;42646;51.910;7.724;2023-05-08T04:12:56;101474.06;;;10.86;95.70
39265;BME280;42646;51.910;7.724;2023-05-08T04:15:27;101479.41;;;10.86;95.35
39265;BME280;42646;51.910;7.724;2023-05-08T04:17:59;101475.91;;;10.85;95.38
39265;BME280;42646;51.910;7.724;2023-05-08T04:20:30;101471.50;;;10.84;95.64
39265;BME280;42646;51.910;7.724;2023-05-08T04:23:02;101471.50;;;10.84;95.75
39265;BME280;42646;51.910;7.724;2023-05-08T04:25:32;101472.34;;;10.85;95.55
39265;BME280;42646;51.910;7.724;2023-05-08T04:28:03;101478.56;;;10.85;95.89
39265;BME280;42646;51.910;7.724;2023-05-08T04:30:32;101479.50;;;10.84;95.79
39265;BME280;42646;51.910;7.724;2023-05-08T04:33:02;101470.66;;;10.84;95.70
39265;BME280;42646;51.910;7.724;2023-05-08T04:35:32;101485.78;;;10.83;95.60
39265;BME280;42646;51.910;7.724;2023-05-08T04:38:02;101486.63;;;10.84;95.96
39265;BME280;42646;51.910;7.724;2023-05-08T04:40:31;101488.47;;;10.83;96.13
39265;BME280;42646;51.910;7.724;2023-05-08T04:42:59;101495.59;;;10.83;96.00
39265;BME280;42646;51.910;7.724;2023-05-08T04:45:29;101498.25;;;10.83;95.92
39265;BME280;42646;51.910;7.724;2023-05-08T04:47:56;101497.41;;;10.82;95.97
39265;BME280;42646;51.910;7.724;2023-05-08T04:50:25;101499.22;;;10.82;95.77
39265;BME280;42646;51.910;7.724;2023-05-08T04:52:52;101496.69;;;10.80;95.79
39265;BME280;42646;51.910;7.724;2023-05-08T04:55:23;101500.34;;;10.79;96.14
39265;BME280;42646;51.910;7.724;2023-05-08T04:57:51;101504.69;;;10.80;95.99
39265;BME280;42646;51.910;7.724;2023-05-08T05:00:21;101508.19;;;10.81;96.60
39265;BME280;42646;51.910;7.724;2023-05-08T05:02:49;101514.22;;;10.83;96.97
39265;BME280;42646;51.910;7.724;2023-05-08T05:05:17;101521.25;;;10.84;97.02
39265;BME280;42646;51.910;7.724;2023-05-08T05:07:45;101520.41;;;10.83;97.50
39265;BME280;42646;51.910;7.724;2023-05-08T05:10:15;101521.16;;;10.85;97.36
39265;BME280;42646;51.910;7.724;2023-05-08T05:12:46;101521.88;;;10.87;97.67
39265;BME280;42646;51.910;7.724;2023-05-08T05:15:14;101528.88;;;10.88;97.83
39265;BME280;42646;51.910;7.724;2023-05-08T05:17:42;101534.06;;;10.90;98.19
39265;BME280;42646;51.910;7.724;2023-05-08T05:20:11;101535.66;;;10.92;98.47
39265;BME280;42646;51.910;7.724;2023-05-08T05:22:40;101532.75;;;10.95;98.52
39265;BME280;42646;51.910;7.724;2023-05-08T05:25:08;101529.03;;;10.98;98.49
39265;BME280;42646;51.910;7.724;2023-05-08T05:27:36;101537.50;;;11.03;98.44
39265;BME280;42646;51.910;7.724;2023-05-08T05:30:07;101534.47;;;11.08;98.34
39265;BME280;42646;51.910;7.724;2023-05-08T05:32:37;101541.38;;;11.10;98.29
39265;BME280;42646;51.910;7.724;2023-05-08T05:35:06;101528.56;;;11.15;98.78
39265;BME280;42646;51.910;7.724;2023-05-08T05:37:35;101523.59;;;11.22;98.82
39265;BME280;42646;51.910;7.724;2023-05-08T05:40:03;101528.44;;;11.28;99.04
39265;BME280;42646;51.910;7.724;2023-05-08T05:42:33;101524.44;;;11.34;98.78
39265;BME280;42646;51.910;7.724;2023-05-08T05:45:27;101524.66;;;11.42;98.96
39265;BME280;42646;51.910;7.724;2023-05-08T05:47:58;101534.69;;;11.49;99.06
39265;BME280;42646;51.910;7.724;2023-05-08T05:50:26;101531.53;;;11.56;99.26
39265;BME280;42646;51.910;7.724;2023-05-08T05:52:55;101529.13;;;11.64;99.20
39265;BME280;42646;51.910;7.724;2023-05-08T05:55:25;101528.63;;;11.70;99.18
39265;BME280;42646;51.910;7.724;2023-05-08T05:57:56;101529.94;;;11.75;99.26
39265;BME280;42646;51.910;7.724;2023-05-08T06:00:50;101532.00;;;11.83;99.33
39265;BME280;42646;51.910;7.724;2023-05-08T06:03:18;101526.06;;;11.91;99.18
39265;BME280;42646;51.910;7.724;2023-05-08T06:06:12;101534.38;;;11.97;98.76
39265;BME280;42646;51.910;7.724;2023-05-08T06:08:41;101531.22;;;12.03;98.98
39265;BME280;42646;51.910;7.724;2023-05-08T06:11:10;101536.09;;;12.10;98.42
39265;BME280;42646;51.910;7.724;2023-05-08T06:13:38;101532.91;;;12.16;98.37
39265;BME280;42646;51.910;7.724;2023-05-08T06:16:08;101532.41;;;12.22;98.00
39265;BME280;42646;51.910;7.724;2023-05-08T06:18:36;101529.31;;;12.26;97.76
39265;BME280;42646;51.910;7.724;2023-05-08T06:21:03;101526.28;;;12.31;97.45
39265;BME280;42646;51.910;7.724;2023-05-08T06:23:31;101530.38;;;12.35;97.33
39265;BME280;42646;51.910;7.724;2023-05-08T06:25:59;101524.69;;;12.40;97.40
39265;BME280;42646;51.910;7.724;2023-05-08T06:28:26;101519.66;;;12.46;96.98
39265;BME280;42646;51.910;7.724;2023-05-08T06:30:55;101529.81;;;12.52;96.98
39265;BME280;42646;51.910;7.724;2023-05-08T06:33:24;101522.97;;;12.60;97.08
39265;BME280;42646;51.910;7.724;2023-05-08T06:35:52;101525.00;;;12.67;97.23
39265;BME280;42646;51.910;7.724;2023-05-08T06:38:20;101528.72;;;12.76;96.85
39265;BME280;42646;51.910;7.724;2023-05-08T06:41:12;101536.59;;;12.77;96.56
39265;BME280;42646;51.910;7.724;2023-05-08T06:43:40;101532.22;;;12.76;95.77
39265;BME280;42646;51.910;7.724;2023-05-08T06:46:10;101540.41;;;12.84;96.17
39265;BME280;42646;51.910;7.724;2023-05-08T06:48:40;101528.22;;;12.92;96.26
39265;BME280;42646;51.910;7.724;2023-05-08T06:51:07;101529.53;;;12.97;95.82
39265;BME280;42646;51.910;7.724;2023-05-08T06:53:35;101528.03;;;13.04;95.09
39265;BME280;42646;51.910;7.724;2023-05-08T06:56:04;101528.75;;;13.06;95.19
39265;BME280;42646;51.910;7.724;2023-05-08T06:58:32;101529.06;;;13.13;94.99
39265;BME280;42646;51.910;7.724;2023-05-08T07:01:01;101528.66;;;13.18;95.34
39265;BME280;42646;51.910;7.724;2023-05-08T07:03:31;101524.22;;;13.28;95.59
39265;BME280;42646;51.910;7.724;2023-05-08T07:06:01;101520.59;;;13.39;95.17
39265;BME280;42646;51.910;7.724;2023-05-08T07:08:30;101516.53;;;13.44;95.08
39265;BME280;42646;51.910;7.724;2023-05-08T07:10:58;101520.34;;;13.51;95.55
39265;BME280;42646;51.910;7.724;2023-05-08T07:13:25;101516.47;;;13.65;96.01
39265;BME280;42646;51.910;7.724;2023-05-08T07:15:54;101516.66;;;13.83;96.55
39265;BME280;42646;51.910;7.724;2023-05-08T07:18:24;101517.38;;;14.04;95.38
39265;BME280;42646;51.910;7.724;2023-05-08T07:20:52;101508.22;;;14.16;94.45
39265;BME280;42646;51.910;7.724;2023-05-08T07:23:21;101502.28;;;14.23;93.07
39265;BME280;42646;51.910;7.724;2023-05-08T07:25:50;101503.16;;;14.23;93.15
39265;BME280;42646;51.910;7.724;2023-05-08T07:28:18;101500.03;;;14.28;93.53
39265;BME280;42646;51.910;7.724;2023-05-08T07:30:46;101502.72;;;14.37;93.94
39265;BME280;42646;51.910;7.724;2023-05-08T07:33:18;101511.72;;;14.46;93.61
39265;BME280;42646;51.910;7.724;2023-05-08T07:35:45;101514.59;;;14.54;93.17
39265;BME280;42646;51.910;7.724;2023-05-08T07:38:13;101515.97;;;14.58;92.98
39265;BME280;42646;51.910;7.724;2023-05-08T07:40:42;101524.00;;;14.58;92.79
39265;BME280;42646;51.910;7.724;2023-05-08T07:43:09;101521.75;;;14.63;92.80
39265;BME280;42646;51.910;7.724;2023-05-08T07:45:38;101522.72;;;14.72;92.96
39265;BME280;42646;51.910;7.724;2023-05-08T07:48:06;101533.41;;;14.82;93.19
39265;BME280;42646;51.910;7.724;2023-05-08T07:50:34;101530.72;;;14.91;93.02
39265;BME280;42646;51.910;7.724;2023-05-08T07:53:02;101525.34;;;15.01;93.21
39265;BME280;42646;51.910;7.724;2023-05-08T07:55:30;101532.22;;;15.13;92.69
39265;BME280;42646;51.910;7.724;2023-05-08T07:57:59;101540.34;;;15.21;91.71
39265;BME280;42646;51.910;7.724;2023-05-08T08:00:29;101533.41;;;15.29;91.40
39265;BME280;42646;51.910;7.724;2023-05-08T08:02:57;101530.53;;;15.40;90.29
39265;BME280;42646;51.910;7.724;2023-05-08T08:05:26;101529.28;;;15.34;90.24
39265;BME280;42646;51.910;7.724;2023-05-08T08:07:54;101530.44;;;15.32;90.72
39265;BME280;42646;51.910;7.724;2023-05-08T08:10:21;101530.00;;;15.36;90.63
39265;BME280;42646;51.910;7.724;2023-05-08T08:12:49;101532.22;;;15.41;90.83
39265;BME280;42646;51.910;7.724;2023-05-08T08:15:19;101528.25;;;15.45;90.73
39265;BME280;42646;51.910;7.724;2023-05-08T08:17:47;101530.34;;;15.51;90.70
39265;BME280;42646;51.910;7.724;2023-05-08T08:20:15;101531.97;;;15.62;91.07
39265;BME280;42646;51.910;7.724;2023-05-08T08:22:43;101534.66;;;15.71;91.24
39265;BME280;42646;51.910;7.724;2023-05-08T08:25:12;101526.53;;;15.81;91.18
39265;BME280;42646;51.910;7.724;2023-05-08T08:27:42;101531.84;;;15.91;90.47
39265;BME280;42646;51.910;7.724;2023-05-08T08:30:13;101533.75;;;15.98;90.20
39265;BME280;42646;51.910;7.724;2023-05-08T08:32:46;101527.63;;;16.06;90.22
39265;BME280;42646;51.910;7.724;2023-05-08T08:35:15;101527.84;;;16.13;90.19
39265;BME280;42646;51.910;7.724;2023-05-08T08:37:43;101534.59;;;16.17;90.24
39265;BME280;42646;51.910;7.724;2023-05-08T08:40:11;101534.31;;;16.20;89.88
39265;BME280;42646;51.910;7.724;2023-05-08T08:42:39;101532.16;;;16.23;89.75
39265;BME280;42646;51.910;7.724;2023-05-08T08:45:09;101528.84;;;16.29;89.73
39265;BME280;42646;51.910;7.724;2023-05-08T08:47:38;101539.69;;;16.38;90.46
39265;BME280;42646;51.910;7.724;2023-05-08T08:50:09;101530.38;;;16.50;90.81
39265;BME280;42646;51.910;7.724;2023-05-08T08:52:46;101531.09;;;16.60;90.73
39265;BME280;42646;51.910;7.724;2023-05-08T08:55:15;101532.50;;;16.64;90.57
39265;BME280;42646;51.910;7.724;2023-05-08T08:57:51;101536.66;;;16.76;89.58
39265;BME280;42646;51.910;7.724;2023-05-08T09:00:22;101535.72;;;16.86;89.95
39265;BME280;42646;51.910;7.724;2023-05-08T09:02:52;101534.06;;;16.93;89.42
39265;BME280;42646;51.910;7.724;2023-05-08T09:05:23;101540.88;;;17.05;89.75
39265;BME280;42646;51.910;7.724;2023-05-08T09:07:53;101537.25;;;17.14;88.69
39265;BME280;42646;51.910;7.724;2023-05-08T09:10:23;101545.66;;;17.19;89.00
39265;BME280;42646;51.910;7.724;2023-05-08T09:12:51;101539.63;;;17.25;89.25
39265;BME280;42646;51.910;7.724;2023-05-08T09:15:45;101544.41;;;17.40;88.92
39265;BME280;42646;51.910;7.724;2023-05-08T09:18:14;101545.28;;;17.48;88.54
39265;BME280;42646;51.910;7.724;2023-05-08T09:20:46;101539.44;;;17.53;87.98
39265;BME280;42646;51.910;7.724;2023-05-08T09:23:15;101542.16;;;17.61;87.31
39265;BME280;42646;51.910;7.724;2023-05-08T09:25:44;101539.66;;;17.68;86.93
39265;BME280;42646;51.910;7.724;2023-05-08T09:28:16;101539.53;;;17.77;89.64
39265;BME280;42646;51.910;7.724;2023-05-08T09:30:54;101538.09;;;17.99;90.64
39265;BME280;42646;51.910;7.724;2023-05-08T09:33:24;101535.13;;;18.27;90.49
39265;BME280;42646;51.910;7.724;2023-05-08T09:35:56;101533.59;;;18.40;86.99
39265;BME280;42646;51.910;7.724;2023-05-08T09:38:31;101523.97;;;18.54;86.33
39265;BME280;42646;51.910;7.724;2023-05-08T09:41:08;101529.72;;;18.67;85.52
39265;BME280;42646;51.910;7.724;2023-05-08T09:43:36;101531.09;;;18.72;84.47
39265;BME280;42646;51.910;7.724;2023-05-08T09:46:19;101533.94;;;18.78;84.68
39265;BME280;42646;51.910;7.724;2023-05-08T09:48:48;101529.38;;;18.87;84.06
39265;BME280;42646;51.910;7.724;2023-05-08T09:51:18;101530.91;;;18.98;83.61
39265;BME280;42646;51.910;7.724;2023-05-08T09:53:45;101536.06;;;19.07;83.77
39265;BME280;42646;51.910;7.724;2023-05-08T09:56:13;101536.56;;;19.19;82.67
39265;BME280;42646;51.910;7.724;2023-05-08T09:58:42;101539.56;;;19.24;82.19
39265;BME280;42646;51.910;7.724;2023-05-08T10:01:27;101542.09;;;19.34;82.58
39265;BME280;42646;51.910;7.724;2023-05-08T10:03:55;101543.72;;;19.43;81.62
39265;BME280;42646;51.910;7.724;2023-05-08T10:06:24;101540.50;;;19.47;81.51
39265;BME280;42646;51.910;7.724;2023-05-08T10:09:09;101529.84;;;19.54;81.20
39265;BME280;42646;51.910;7.724;2023-05-08T10:11:38;101523.44;;;19.55;81.02
39265;BME280;42646;51.910;7.724;2023-05-08T10:14:06;101530.72;;;19.46;80.89
39265;BME280;42646;51.910;7.724;2023-05-08T10:16:40;101531.25;;;19.42;81.06
39265;BME280;42646;51.910;7.724;2023-05-08T10:19:13;101526.38;;;19.37;81.11
39265;BME280;42646;51.910;7.724;2023-05-08T10:21:46;101532.78;;;19.36;81.58
39265;BME280;42646;51.910;7.724;2023-05-08T10:24:18;101536.13;;;19.38;81.87
39265;BME280;42646;51.910;7.724;2023-05-08T10:26:56;101534.97;;;19.41;80.79
39265;BME280;42646;51.910;7.724;2023-05-08T10:29:40;101531.59;;;19.39;80.69
39265;BME280;42646;51.910;7.724;2023-05-08T10:32:09;101537.47;;;19.42;80.30
39265;BME280;42646;51.910;7.724;2023-05-08T10:34:39;101537.16;;;19.37;80.02
39265;BME280;42646;51.910;7.724;2023-05-08T10:37:08;101535.31;;;19.38;80.04
39265;BME280;42646;51.910;7.724;2023-05-08T10:39:37;101540.22;;;19.34;80.46
39265;BME280;42646;51.910;7.724;2023-05-08T10:42:06;101539.19;;;19.35;81.37
39265;BME280;42646;51.910;7.724;2023-05-08T10:44:35;101536.31;;;19.37;81.40
39265;BME280;42646;51.910;7.724;2023-05-08T10:47:10;101532.66;;;19.30;81.31
39265;BME280;42646;51.910;7.724;2023-05-08T10:49:46;101533.34;;;19.24;81.58
39265;BME280;42646;51.910;7.724;2023-05-08T10:52:23;101532.84;;;19.20;81.58
39265;BME280;42646;51.910;7.724;2023-05-08T10:55:12;101526.28;;;19.23;82.24
39265;BME280;42646;51.910;7.724;2023-05-08T10:58:01;101525.75;;;19.27;82.78
39265;BME280;42646;51.910;7.724;2023-05-08T11:03:41;101520.97;;;19.37;82.69
39265;BME280;42646;51.910;7.724;2023-05-08T11:06:10;101522.13;;;19.43;83.12
39265;BME280;42646;51.910;7.724;2023-05-08T11:08:48;101517.88;;;19.48;82.81
39265;BME280;42646;51.910;7.724;2023-05-08T11:11:24;101523.47;;;19.47;82.30
39265;BME280;42646;51.910;7.724;2023-05-08T11:13:57;101513.50;;;19.47;82.03
39265;BME280;42646;51.910;7.724;2023-05-08T11:17:02;101514.16;;;19.49;81.58
39265;BME280;42646;51.910;7.724;2023-05-08T11:19:30;101513.34;;;19.49;81.37
39265;BME280;42646;51.910;7.724;2023-05-08T11:22:22;101511.13;;;19.53;82.05
39265;BME280;42646;51.910;7.724;2023-05-08T11:24:57;101506.75;;;19.60;82.94
39265;BME280;42646;51.910;7.724;2023-05-08T11:27:36;101510.22;;;19.68;83.36
39265;BME280;42646;51.910;7.724;2023-05-08T11:30:34;101507.69;;;19.75;83.89
39265;BME280;42646;51.910;7.724;2023-05-08T11:33:14;101504.91;;;19.83;85.10
39265;BME280;42646;51.910;7.724;2023-05-08T11:35:47;101501.91;;;19.78;84.97
39265;BME280;42646;51.910;7.724;2023-05-08T11:38:24;101498.88;;;19.81;84.42
39265;BME280;42646;51.910;7.724;2023-05-08T11:41:05;101502.16;;;19.91;84.63
39265;BME280;42646;51.910;7.724;2023-05-08T11:44:11;101500.78;;;19.95;84.35
39265;BME280;42646;51.910;7.724;2023-05-08T11:46:48;101497.75;;;19.98;84.74
39265;BME280;42646;51.910;7.724;2023-05-08T11:49:18;101500.25;;;20.00;84.00
39265;BME280;42646;51.910;7.724;2023-05-08T11:51:51;101489.25;;;20.01;83.54
39265;BME280;42646;51.910;7.724;2023-05-08T11:54:21;101490.59;;;20.06;84.01
39265;BME280;42646;51.910;7.724;2023-05-08T11:56:52;101494.78;;;20.08;83.51
39265;BME280;42646;51.910;7.724;2023-05-08T11:59:20;101499.00;;;20.11;83.27
39265;BME280;42646;51.910;7.724;2023-05-08T12:01:51;101496.31;;;20.11;83.07
39265;BME280;42646;51.910;7.724;2023-05-08T12:04:21;101498.16;;;20.10;82.64
39265;BME280;42646;51.910;7.724;2023-05-08T12:06:56;101500.19;;;20.08;82.59
39265;BME280;42646;51.910;7.724;2023-05-08T12:09:24;101502.44;;;20.05;82.58
39265;BME280;42646;51.910;7.724;2023-05-08T12:11:58;101501.56;;;20.04;82.33
39265;BME280;42646;51.910;7.724;2023-05-08T12:14:26;101495.81;;;20.07;82.82
39265;BME280;42646;51.910;7.724;2023-05-08T12:16:53;101494.06;;;20.14;82.68
39265;BME280;42646;51.910;7.724;2023-05-08T12:19:21;101498.75;;;20.20;82.00
39265;BME280;42646;51.910;7.724;2023-05-08T12:21:50;101494.28;;;20.27;81.43
39265;BME280;42646;51.910;7.724;2023-05-08T12:24:18;101488.34;;;20.32;80.83
39265;BME280;42646;51.910;7.724;2023-05-08T12:26:48;101481.91;;;20.33;79.45
39265;BME280;42646;51.910;7.724;2023-05-08T12:29:21;101488.78;;;20.21;78.72
39265;BME280;42646;51.910;7.724;2023-05-08T12:31:51;101488.13;;;20.19;78.81
39265;BME280;42646;51.910;7.724;2023-05-08T12:34:20;101489.16;;;20.18;78.92
39265;BME280;42646;51.910;7.724;2023-05-08T12:37:00;101484.59;;;20.18;79.27
39265;BME280;42646;51.910;7.724;2023-05-08T12:39:32;101488.78;;;20.21;79.53
39265;BME280;42646;51.910;7.724;2023-05-08T12:42:03;101483.66;;;20.26;78.80
39265;BME280;42646;51.910;7.724;2023-05-08T12:44:34;101482.84;;;20.25;78.71
39265;BME280;42646;51.910;7.724;2023-05-08T12:47:03;101481.06;;;20.33;79.53
39265;BME280;42646;51.910;7.724;2023-05-08T12:49:31;101478.69;;;20.38;78.89
39265;BME280;42646;51.910;7.724;2023-05-08T12:52:01;101473.94;;;20.40;78.38
39265;BME280;42646;51.910;7.724;2023-05-08T12:54:34;101476.91;;;20.45;77.97
39265;BME280;42646;51.910;7.724;2023-05-08T12:57:08;101472.88;;;20.49;78.37
39265;BME280;42646;51.910;7.724;2023-05-08T12:59:38;101465.41;;;20.51;78.39
39265;BME280;42646;51.910;7.724;2023-05-08T13:02:11;101463.72;;;20.50;78.03
39265;BME280;42646;51.910;7.724;2023-05-08T13:04:39;101470.53;;;20.46;78.81
39265;BME280;42646;51.910;7.724;2023-05-08T13:07:07;101473.38;;;20.44;78.50
39265;BME280;42646;51.910;7.724;2023-05-08T13:09:36;101467.97;;;20.44;78.01
39265;BME280;42646;51.910;7.724;2023-05-08T13:12:05;101474.22;;;20.45;78.11
39265;BME280;42646;51.910;7.724;2023-05-08T13:14:33;101470.88;;;20.43;78.24
39265;BME280;42646;51.910;7.724;2023-05-08T13:17:02;101476.66;;;20.40;78.42
39265;BME280;42646;51.910;7.724;2023-05-08T13:19:30;101474.09;;;20.38;78.30
39265;BME280;42646;51.910;7.724;2023-05-08T13:21:59;101469.09;;;20.35;78.19
39265;BME280;42646;51.910;7.724;2023-05-08T13:24:27;101466.91;;;20.31;77.77
39265;BME280;42646;51.910;7.724;2023-05-08T13:26:55;101465.78;;;20.25;77.82
39265;BME280;42646;51.910;7.724;2023-05-08T13:29:26;101464.09;;;20.24;77.81
39265;BME280;42646;51.910;7.724;2023-05-08T13:31:55;101464.66;;;20.19;78.55
39265;BME280;42646;51.910;7.724;2023-05-08T13:34:24;101461.94;;;20.19;78.92
39265;BME280;42646;51.910;7.724;2023-05-08T13:36:53;101465.38;;;20.13;79.43